Time;durP1;ratioP1;P1;durP2;ratioP2;P2;SDS_P1;SDS_P2;PMS_P1;PMS_P2;Temp;Humidity;BMP_temperature;BMP_pressure;BME280_temperature;BME280_humidity;BME280_pressure;Samples;Min_cycle;Max_cycle;Signal;HPM_P1;HPM_P2
2023/04/25 00:01:48;;;;;;;3.90;0.60;;;6.60;99.90;;;;;;5014164;28;20056;-52
2023/04/25 00:04:14;;;;;;;0.83;0.70;;;6.60;99.90;;;;;;5013806;28;20026;-49
2023/04/25 00:06:40;;;;;;;1.33;0.60;;;6.70;99.90;;;;;;5013934;28;20475;-54
2023/04/25 00:09:10;;;;;;;0.83;0.50;;;6.70;99.90;;;;;;5013747;28;20065;-56
2023/04/25 00:11:37;;;;;;;0.97;0.73;;;6.80;99.90;;;;;;5013862;28;20045;-51
2023/04/25 00:14:04;;;;;;;1.80;0.60;;;6.80;99.90;;;;;;5013598;28;20108;-50
2023/04/25 00:16:33;;;;;;;1.53;0.53;;;6.80;99.90;;;;;;5013731;28;20095;-56
2023/04/25 00:18:59;;;;;;;1.05;0.40;;;6.80;99.90;;;;;;5013544;28;20092;-52
2023/04/25 00:21:25;;;;;;;2.00;0.80;;;6.80;99.90;;;;;;5013685;28;20493;-48
2023/04/25 00:23:52;;;;;;;0.57;0.33;;;6.80;99.90;;;;;;5013410;28;20050;-52
2023/04/25 00:26:18;;;;;;;2.63;0.90;;;6.80;99.90;;;;;;5012715;28;20055;-53
2023/04/25 00:28:44;;;;;;;1.87;1.03;;;6.90;99.90;;;;;;5013294;28;20109;-53
2023/04/25 00:31:10;;;;;;;0.70;0.50;;;6.90;99.90;;;;;;5013353;28;20113;-53
2023/04/25 00:33:36;;;;;;;1.37;0.80;;;6.90;99.90;;;;;;4995619;28;20132;-51
2023/04/25 00:36:01;;;;;;;1.40;1.03;;;6.90;99.90;;;;;;4996019;28;20493;-54
2023/04/25 00:38:27;;;;;;;0.93;0.77;;;6.80;99.90;;;;;;5012807;28;20025;-50
2023/04/25 00:40:55;;;;;;;0.87;0.60;;;6.80;99.90;;;;;;4995316;28;20549;-52
2023/04/25 00:43:21;;;;;;;1.33;0.37;;;6.80;99.90;;;;;;4995312;28;20455;-56
2023/04/25 00:45:49;;;;;;;1.97;1.13;;;6.80;99.90;;;;;;4995716;28;20109;-54
2023/04/25 00:48:17;;;;;;;3.50;0.97;;;6.80;99.90;;;;;;5012759;28;20026;-52
2023/04/25 00:50:56;;;;;;;4.63;0.87;;;6.80;99.90;;;;;;5012951;28;20076;-52
2023/04/25 00:53:23;;;;;;;1.30;0.97;;;6.80;99.90;;;;;;5012731;28;20034;-54
2023/04/25 00:55:53;;;;;;;1.93;0.57;;;6.90;99.90;;;;;;5012949;28;20033;-53
2023/04/25 00:58:22;;;;;;;1.43;0.50;;;6.90;99.90;;;;;;5012468;28;20030;-54
2023/04/25 01:00:50;;;;;;;1.90;0.98;;;6.90;99.90;;;;;;5012822;28;20060;-52
2023/04/25 01:03:19;;;;;;;1.50;1.00;;;6.90;99.90;;;;;;5012513;28;20418;-51
2023/04/25 01:05:45;;;;;;;1.35;0.50;;;6.80;99.90;;;;;;5012363;28;20030;-50
2023/04/25 01:08:11;;;;;;;3.17;0.90;;;6.70;99.90;;;;;;4994667;28;20033;-52
2023/04/25 01:10:37;;;;;;;1.00;0.50;;;6.70;99.90;;;;;;5012500;28;20496;-54
2023/04/25 01:13:03;;;;;;;1.83;0.90;;;6.70;99.90;;;;;;5012589;28;20104;-51
2023/04/25 01:15:29;;;;;;;0.77;0.53;;;6.80;99.90;;;;;;5012353;28;20470;-52
2023/04/25 01:17:55;;;;;;;1.00;0.60;;;6.70;99.90;;;;;;5012046;28;20033;-51
2023/04/25 01:20:24;;;;;;;3.17;0.83;;;6.80;99.90;;;;;;5012205;28;20494;-55
2023/04/25 01:22:52;;;;;;;2.90;0.90;;;6.80;99.90;;;;;;4994700;28;20128;-55
2023/04/25 01:25:19;;;;;;;3.20;1.27;;;6.80;99.90;;;;;;4994606;28;20044;-51
2023/04/25 01:27:45;;;;;;;0.67;0.50;;;6.80;99.90;;;;;;4994513;28;20653;-52
2023/04/25 01:30:12;;;;;;;2.17;1.00;;;6.80;99.90;;;;;;4994146;28;20091;-54
2023/04/25 01:32:38;;;;;;;2.30;1.03;;;6.80;99.90;;;;;;5011893;28;20034;-54
2023/04/25 01:35:09;;;;;;;2.30;0.80;;;6.70;99.90;;;;;;5011851;28;20149;-49
2023/04/25 01:37:37;;;;;;;0.77;0.60;;;6.70;99.90;;;;;;5011872;28;20026;-53
2023/04/25 01:40:05;;;;;;;0.97;0.70;;;6.80;99.90;;;;;;5006567;22;20119;-49
2023/04/25 01:42:32;;;;;;;1.57;0.60;;;6.80;99.90;;;;;;5010712;28;20056;-48
2023/04/25 01:44:58;;;;;;;1.90;0.93;;;6.70;99.90;;;;;;4993935;28;20070;-49
2023/04/25 01:47:24;;;;;;;2.03;0.80;;;6.70;99.90;;;;;;4993873;28;20095;-50
2023/04/25 01:49:50;;;;;;;2.13;0.83;;;6.80;99.90;;;;;;5011661;28;20482;-48
2023/04/25 01:52:15;;;;;;;2.40;0.73;;;6.80;99.90;;;;;;4994199;28;20036;-48
2023/04/25 01:54:44;;;;;;;1.77;0.67;;;6.80;99.90;;;;;;4993836;28;20084;-48
2023/04/25 01:57:11;;;;;;;1.88;0.77;;;6.80;99.90;;;;;;5011581;28;20061;-47
2023/04/25 01:59:38;;;;;;;2.27;0.73;;;6.80;99.90;;;;;;4993831;28;20038;-48
2023/04/25 02:02:12;;;;;;;1.83;1.20;;;6.80;99.90;;;;;;4993975;28;20402;-48
2023/04/25 02:04:38;;;;;;;1.17;0.67;;;6.70;99.90;;;;;;4993664;28;20021;-49
2023/04/25 02:07:04;;;;;;;5.67;1.00;;;6.70;99.90;;;;;;4993572;28;20030;-49
2023/04/25 02:09:39;;;;;;;2.03;0.90;;;6.70;99.90;;;;;;4993821;28;20037;-49
2023/04/25 02:12:08;;;;;;;3.63;1.00;;;6.70;99.90;;;;;;4993438;28;20026;-47
2023/04/25 02:14:52;;;;;;;2.87;1.10;;;6.70;99.90;;;;;;4993533;28;20036;-48
2023/04/25 02:17:26;;;;;;;1.73;0.80;;;6.70;99.90;;;;;;4993058;28;20454;-48
2023/04/25 02:19:51;;;;;;;2.07;1.10;;;6.70;99.90;;;;;;4993604;28;20037;-51
2023/04/25 02:22:17;;;;;;;4.47;0.80;;;6.60;99.90;;;;;;4993642;28;20030;-50
2023/04/25 02:24:43;;;;;;;2.47;0.67;;;6.60;99.90;;;;;;4993459;28;20459;-47
2023/04/25 02:27:09;;;;;;;0.90;0.70;;;6.60;99.90;;;;;;4993252;28;20038;-48
2023/04/25 02:29:36;;;;;;;1.63;0.67;;;6.60;99.90;;;;;;4993491;28;20265;-47
2023/04/25 02:32:02;;;;;;;2.20;1.10;;;6.60;99.90;;;;;;4993555;28;20037;-47
2023/04/25 02:34:27;;;;;;;5.27;1.47;;;6.60;99.90;;;;;;4993270;28;20173;-48
2023/04/25 02:36:53;;;;;;;2.63;0.83;;;6.70;99.90;;;;;;4993289;28;20040;-48
2023/04/25 02:39:19;;;;;;;1.50;1.07;;;6.70;99.90;;;;;;4993013;28;20029;-49
2023/04/25 02:41:45;;;;;;;1.73;0.60;;;6.70;99.90;;;;;;4993376;28;20042;-49
2023/04/25 02:44:10;;;;;;;3.03;0.70;;;6.70;99.90;;;;;;5010737;28;20026;-50
2023/04/25 02:46:37;;;;;;;6.57;2.00;;;6.70;99.90;;;;;;5010709;28;20037;-48
2023/04/25 02:49:02;;;;;;;1.30;0.63;;;6.60;99.90;;;;;;5010552;28;20491;-49
2023/04/25 02:51:30;;;;;;;2.10;1.40;;;6.60;99.90;;;;;;5010936;28;20477;-48
2023/04/25 02:53:55;;;;;;;1.10;0.73;;;6.60;99.90;;;;;;5010620;28;20056;-49
2023/04/25 02:56:21;;;;;;;0.77;0.53;;;6.60;99.90;;;;;;4991954;28;20503;-49
2023/04/25 02:58:47;;;;;;;2.50;0.80;;;6.60;99.90;;;;;;4992417;28;20037;-47
2023/04/25 03:01:12;;;;;;;1.27;0.77;;;6.60;99.90;;;;;;4993322;28;20507;-49
2023/04/25 03:03:38;;;;;;;1.00;0.60;;;6.70;99.90;;;;;;4992884;28;20041;-47
2023/04/25 03:06:04;;;;;;;1.33;0.70;;;6.60;99.90;;;;;;4993202;28;20029;-49
2023/04/25 03:08:34;;;;;;;0.90;0.60;;;6.50;99.90;;;;;;4992935;28;20033;-48
2023/04/25 03:11:00;;;;;;;0.87;0.70;;;6.50;99.90;;;;;;4976935;28;20486;-49
2023/04/25 03:13:27;;;;;;;1.33;0.60;;;6.40;99.90;;;;;;4992917;28;20471;-48
2023/04/25 03:15:53;;;;;;;1.73;1.03;;;6.50;99.90;;;;;;4992954;28;20125;-48
2023/04/25 03:18:19;;;;;;;1.50;0.70;;;6.40;99.90;;;;;;4992526;28;20573;-49
2023/04/25 03:20:44;;;;;;;0.83;0.50;;;6.50;99.90;;;;;;5010370;28;20494;-48
2023/04/25 03:23:10;;;;;;;7.00;0.90;;;6.40;99.90;;;;;;4997799;28;20030;-49
2023/04/25 03:25:38;;;;;;;1.90;0.60;;;6.40;99.90;;;;;;4984045;28;20105;-48
2023/04/25 03:28:05;;;;;;;5.10;1.17;;;6.40;99.90;;;;;;4994045;28;20097;-49
2023/04/25 03:30:31;;;;;;;1.70;1.20;;;6.30;99.90;;;;;;4994871;28;20042;-48
2023/04/25 03:32:57;;;;;;;1.80;0.97;;;6.30;99.90;;;;;;4995399;28;20052;-47
2023/04/25 03:35:23;;;;;;;1.70;0.87;;;6.40;99.90;;;;;;5012632;28;20471;-47
2023/04/25 03:37:50;;;;;;;1.80;0.77;;;6.30;99.90;;;;;;4994759;28;20116;-49
2023/04/25 03:40:21;;;;;;;3.37;1.33;;;6.30;99.90;;;;;;4993819;28;20355;-48
2023/04/25 03:43:09;;;;;;;0.77;0.40;;;6.30;99.90;;;;;;4995121;28;20029;-46
2023/04/25 03:45:36;;;;;;;1.50;1.03;;;6.30;99.90;;;;;;4994420;28;20490;-47
2023/04/25 03:48:02;;;;;;;4.83;0.83;;;6.40;99.90;;;;;;5027436;28;20026;-47
2023/04/25 03:50:30;;;;;;;1.57;0.93;;;6.40;99.90;;;;;;4994078;28;20026;-49
2023/04/25 03:52:56;;;;;;;1.07;0.80;;;6.40;99.90;;;;;;5018921;28;20470;-50
2023/04/25 03:55:24;;;;;;;1.90;1.00;;;6.30;99.90;;;;;;4993471;28;20525;-50
2023/04/25 03:57:49;;;;;;;0.80;0.70;;;6.30;99.90;;;;;;5018473;28;20022;-49
2023/04/25 04:00:16;;;;;;;1.80;1.00;;;6.20;99.90;;;;;;4994200;28;20026;-47
2023/04/25 04:02:42;;;;;;;1.60;0.80;;;6.30;99.90;;;;;;5012677;28;20030;-47
2023/04/25 04:05:09;;;;;;;1.93;1.07;;;6.30;99.90;;;;;;4993759;28;20025;-47
2023/04/25 04:07:39;;;;;;;;;;;6.30;99.90;;;;;;4994902;28;20026;-51
2023/04/25 04:10:08;;;;;;;5.10;0.55;;;6.30;99.90;;;;;;4993327;28;19913;-52
2023/04/25 04:12:38;;;;;;;1.70;0.85;;;6.20;99.90;;;;;;4994648;28;20531;-54
2023/04/25 04:15:07;;;;;;;1.93;0.80;;;6.30;99.90;;;;;;4993994;28;20032;-48
2023/04/25 04:17:34;;;;;;;2.17;1.10;;;6.30;99.90;;;;;;4994210;28;20442;-49
2023/04/25 04:20:00;;;;;;;4.57;1.30;;;6.20;99.90;;;;;;4993942;28;20061;-49
2023/04/25 04:22:29;;;;;;;2.47;1.40;;;6.10;99.90;;;;;;4994472;28;20030;-47
2023/04/25 04:24:59;;;;;;;1.20;0.70;;;6.10;99.90;;;;;;4992859;28;20653;-48
2023/04/25 04:27:47;;;;;;;2.00;1.20;;;6.10;99.90;;;;;;5010004;28;20033;-47
2023/04/25 04:30:24;;;;;;;1.27;1.17;;;6.10;99.90;;;;;;4993460;28;20132;-51
2023/04/25 04:33:04;;;;;;;2.87;1.17;;;6.00;99.90;;;;;;4993991;28;20080;-49
2023/04/25 04:35:30;;;;;;;3.60;1.37;;;6.00;99.90;;;;;;4993867;28;20037;-49
2023/04/25 04:37:56;;;;;;;2.23;0.83;;;5.90;99.90;;;;;;5010920;28;20087;-47
2023/04/25 04:40:25;;;;;;;2.17;0.73;;;5.90;99.90;;;;;;4991773;28;20529;-50
2023/04/25 04:43:03;;;;;;;1.75;0.77;;;5.90;99.90;;;;;;4994110;28;20999;-47
2023/04/25 04:45:49;;;;;;;2.33;0.63;;;5.90;99.90;;;;;;5011938;28;20137;-51
2023/04/25 04:48:42;;;;;;;2.23;1.17;;;5.90;99.90;;;;;;5007549;28;20045;-43
2023/04/25 04:51:34;;;;;;;1.97;1.07;;;5.80;99.90;;;;;;4995521;28;20037;-49
2023/04/25 04:54:10;;;;;;;1.03;0.63;;;5.80;99.90;;;;;;4992428;28;20466;-49
2023/04/25 04:56:57;;;;;;;0.93;0.63;;;5.80;99.90;;;;;;5010762;28;20105;-51
2023/04/25 05:00:01;;;;;;;3.80;0.60;;;5.70;99.90;;;;;;4988628;28;20486;-48
2023/04/25 05:02:47;;;;;;;0.77;0.60;;;5.70;99.90;;;;;;4988419;28;20454;-49
2023/04/25 05:05:31;;;;;;;1.93;0.90;;;5.70;99.90;;;;;;5004793;28;20045;-50
2023/04/25 05:08:15;;;;;;;1.60;0.97;;;5.60;99.90;;;;;;5010927;28;20037;-51
2023/04/25 05:10:53;;;;;;;2.07;0.80;;;5.70;99.90;;;;;;4993624;28;20049;-49
2023/04/25 05:13:30;;;;;;;3.23;1.13;;;5.70;99.90;;;;;;4993009;28;20051;-48
2023/04/25 05:16:03;;;;;;;2.00;1.80;;;5.70;99.90;;;;;;4993347;28;20098;-51
2023/04/25 05:18:58;;;;;;;2.03;1.57;;;5.70;99.90;;;;;;4956555;28;20046;-52
2023/04/25 05:21:43;;;;;;;1.63;0.77;;;5.80;99.90;;;;;;4993646;28;20129;-51
2023/04/25 05:24:44;;;;;;;5.57;1.43;;;5.80;99.90;;;;;;4948928;28;20039;-51
2023/04/25 05:27:45;;;;;;;2.33;0.77;;;5.80;99.90;;;;;;4950152;29;20039;-47
2023/04/25 05:30:22;;;;;;;1.63;0.70;;;5.80;99.90;;;;;;4984869;28;20099;-46
2023/04/25 05:33:04;;;;;;;2.07;1.40;;;5.80;99.90;;;;;;4993349;28;20121;-49
2023/04/25 05:35:30;;;;;;;0.77;0.47;;;5.90;99.90;;;;;;4992553;28;20030;-45
2023/04/25 05:37:56;;;;;;;1.93;1.10;;;5.90;99.90;;;;;;4992859;28;20061;-44
2023/04/25 05:40:34;;;;;;;1.03;0.47;;;6.00;99.90;;;;;;4991660;28;20049;-44
2023/04/25 05:43:10;;;;;;;1.80;1.17;;;6.10;99.90;;;;;;4992710;28;20490;-44
2023/04/25 05:46:02;;;;;;;2.13;0.83;;;6.20;99.90;;;;;;4992944;28;20104;-44
2023/04/25 05:48:51;;;;;;;1.20;0.60;;;6.20;99.90;;;;;;5002008;28;20029;-45
2023/04/25 05:51:39;;;;;;;4.17;1.00;;;6.30;99.90;;;;;;5010181;28;20112;-45
2023/04/25 05:54:25;;;;;;;2.17;1.00;;;6.30;99.90;;;;;;5008709;28;20041;-46
2023/04/25 05:56:53;;;;;;;2.67;1.40;;;6.50;99.90;;;;;;4992590;28;20061;-43
2023/04/25 05:59:19;;;;;;;1.57;0.80;;;6.60;99.90;;;;;;4992020;28;20065;-43
2023/04/25 06:01:46;;;;;;;1.33;0.77;;;6.60;99.90;;;;;;4992380;28;20459;-45
2023/04/25 06:04:12;;;;;;;2.00;1.27;;;6.60;99.90;;;;;;4992052;28;20125;-53
2023/04/25 06:06:38;;;;;;;3.03;1.17;;;6.70;99.90;;;;;;4992244;28;20049;-52
2023/04/25 06:09:04;;;;;;;4.47;1.50;;;6.80;99.90;;;;;;4990977;28;20050;-49
2023/04/25 06:11:30;;;;;;;3.23;1.10;;;6.90;99.90;;;;;;4992396;28;20090;-46
2023/04/25 06:13:56;;;;;;;1.87;1.03;;;6.90;99.90;;;;;;4991948;28;20117;-50
2023/04/25 06:16:22;;;;;;;1.50;1.00;;;7.10;99.90;;;;;;4991946;28;20033;-48
2023/04/25 06:18:48;;;;;;;2.53;0.90;;;7.00;99.90;;;;;;4991883;28;20026;-52
2023/04/25 06:21:14;;;;;;;2.27;0.97;;;7.20;99.90;;;;;;4992042;28;20109;-48
2023/04/25 06:23:40;;;;;;;3.40;1.93;;;7.20;99.90;;;;;;4990628;28;20121;-49
2023/04/25 06:26:08;;;;;;;1.27;0.90;;;7.30;99.90;;;;;;5009796;28;20034;-49
2023/04/25 06:28:37;;;;;;;1.45;0.60;;;7.40;99.90;;;;;;4991296;28;20037;-49
2023/04/25 06:31:04;;;;;;;4.37;1.03;;;7.50;99.90;;;;;;4990012;28;20403;-52
2023/04/25 06:33:30;;;;;;;2.87;0.90;;;7.60;99.90;;;;;;4989663;28;20072;-50
2023/04/25 06:35:57;;;;;;;1.50;0.63;;;7.60;99.90;;;;;;4990677;28;20177;-47
2023/04/25 06:38:26;;;;;;;4.85;0.80;;;7.60;99.90;;;;;;4990349;28;20034;-51
2023/04/25 06:40:53;;;;;;;1.50;0.60;;;7.60;99.90;;;;;;4990997;28;20360;-51
2023/04/25 06:43:19;;;;;;;3.00;1.07;;;7.80;99.90;;;;;;5008347;28;20040;-51
2023/04/25 06:46:05;;;;;;;4.93;0.87;;;7.80;99.90;;;;;;4992032;28;20501;-49
2023/04/25 06:48:35;;;;;;;1.40;0.60;;;7.60;99.90;;;;;;4991124;28;20068;-49
2023/04/25 06:51:00;;;;;;;2.27;0.80;;;7.50;99.90;;;;;;4991536;28;20136;-49
2023/04/25 06:53:27;;;;;;;2.03;0.60;;;7.40;99.90;;;;;;4990139;28;20038;-47
2023/04/25 06:55:59;;;;;;;3.53;0.93;;;7.40;99.90;;;;;;4991444;28;20037;-48
2023/04/25 06:58:30;;;;;;;1.77;0.90;;;7.40;99.90;;;;;;4990861;28;20049;-47
2023/04/25 07:00:55;;;;;;;3.30;0.97;;;7.40;99.90;;;;;;5009391;28;20119;-52
2023/04/25 07:03:23;;;;;;;1.03;0.63;;;7.40;99.90;;;;;;4990457;28;20036;-50
2023/04/25 07:05:52;;;;;;;4.65;1.27;;;7.40;99.90;;;;;;4987485;28;20499;-48
2023/04/25 07:08:18;;;;;;;3.97;1.20;;;7.40;99.90;;;;;;4986836;28;20069;-51
2023/04/25 07:10:45;;;;;;;1.73;0.80;;;7.40;99.90;;;;;;4971331;28;20088;-50
2023/04/25 07:13:11;;;;;;;1.60;0.60;;;7.30;99.90;;;;;;4989338;28;20491;-48
2023/04/25 07:15:37;;;;;;;2.30;1.13;;;7.30;99.90;;;;;;4971560;28;20121;-51
2023/04/25 07:18:03;;;;;;;4.93;2.40;;;7.40;99.90;;;;;;4971185;28;20384;-49
2023/04/25 07:20:30;;;;;;;2.70;0.90;;;7.40;99.90;;;;;;4971515;28;20031;-49
2023/04/25 07:22:57;;;;;;;1.83;1.03;;;7.30;99.90;;;;;;4987782;28;20121;-50
2023/04/25 07:25:23;;;;;;;1.70;0.60;;;7.40;99.90;;;;;;4986613;28;20395;-48
2023/04/25 07:27:49;;;;;;;1.83;0.93;;;7.60;99.90;;;;;;4987497;28;20030;-49
2023/04/25 07:30:20;;;;;;;1.33;0.63;;;7.80;99.90;;;;;;4971271;28;20085;-52
2023/04/25 07:32:46;;;;;;;5.37;1.80;;;8.40;99.90;;;;;;4987982;28;20053;-54
2023/04/25 07:35:12;;;;;;;1.33;1.10;;;9.00;99.90;;;;;;4987787;28;20054;-53
2023/04/25 07:37:38;;;;;;;4.73;1.83;;;9.30;99.90;;;;;;4971106;28;20474;-52
2023/04/25 07:40:16;;;;;;;4.47;1.23;;;9.50;99.90;;;;;;5004958;23;20368;-56
2023/04/25 07:42:52;;;;;;;5.00;2.07;;;9.80;99.90;;;;;;4971765;28;20019;-56
2023/04/25 07:45:32;;;;;;;5.23;1.67;;;9.90;99.90;;;;;;4988627;28;20050;-54
2023/04/25 07:47:58;;;;;;;1.27;0.77;;;9.70;99.90;;;;;;4970916;28;20089;-54
2023/04/25 07:50:24;;;;;;;3.87;1.63;;;9.60;99.90;;;;;;5003727;28;20034;-53
2023/04/25 07:52:49;;;;;;;2.20;1.17;;;9.60;99.90;;;;;;5004172;28;20125;-53
2023/04/25 07:55:27;;;;;;;3.80;1.60;;;9.50;99.90;;;;;;5002802;28;20403;-56
2023/04/25 07:58:02;;;;;;;3.43;1.00;;;9.60;99.90;;;;;;5009858;28;20034;-51
2023/04/25 08:00:30;;;;;;;2.40;0.97;;;10.00;99.90;;;;;;4995117;28;20066;-55
2023/04/25 08:03:16;;;;;;;2.23;1.00;;;10.20;99.90;;;;;;4987445;28;20126;-55
2023/04/25 08:05:42;;;;;;;2.63;0.93;;;10.30;99.90;;;;;;5003850;28;20117;-55
2023/04/25 08:08:08;;;;;;;1.53;0.63;;;10.60;99.90;;;;;;5003517;28;20023;-51
2023/04/25 08:10:34;;;;;;;2.47;0.80;;;10.40;99.90;;;;;;4970110;28;20096;-52
2023/04/25 08:13:00;;;;;;;1.07;0.70;;;10.00;99.90;;;;;;4971201;28;20030;-52
2023/04/25 08:15:26;;;;;;;2.57;0.90;;;9.90;99.90;;;;;;4973520;28;20486;-53
2023/04/25 08:17:52;;;;;;;1.70;0.83;;;10.00;99.90;;;;;;4974389;28;20115;-55
2023/04/25 08:20:18;;;;;;;4.10;0.63;;;10.10;99.90;;;;;;4974105;28;20031;-55
2023/04/25 08:22:44;;;;;;;0.50;0.50;;;10.20;99.90;;;;;;4975034;28;20046;-56
2023/04/25 08:25:19;;;;;;;1.03;0.57;;;10.20;99.90;;;;;;4973036;28;20029;-58
2023/04/25 08:27:45;;;;;;;1.70;0.73;;;10.30;99.90;;;;;;4974758;28;20026;-53
2023/04/25 08:30:12;;;;;;;2.77;1.17;;;10.60;99.90;;;;;;4974779;28;20106;-53
2023/04/25 08:32:39;;;;;;;1.40;0.70;;;10.30;99.90;;;;;;4974590;28;20041;-52
2023/04/25 08:35:27;;;;;;;1.00;0.63;;;10.20;99.90;;;;;;4994487;28;20043;-56
2023/04/25 08:37:53;;;;;;;2.93;0.80;;;10.10;99.90;;;;;;5015965;28;20381;-51
2023/04/25 08:40:26;;;;;;;1.60;0.60;;;10.10;99.90;;;;;;5025343;28;20037;-50
2023/04/25 08:43:03;;;;;;;3.90;1.33;;;10.00;99.90;;;;;;4994147;28;20087;-52
2023/04/25 08:45:32;;;;;;;1.90;0.50;;;10.20;99.90;;;;;;5011381;28;20135;-51
2023/04/25 08:47:59;;;;;;;1.30;0.53;;;10.30;99.90;;;;;;5011519;28;20034;-52
2023/04/25 08:50:26;;;;;;;1.10;0.70;;;10.20;99.90;;;;;;4993418;28;20038;-54
2023/04/25 08:52:54;;;;;;;3.00;1.40;;;10.20;99.90;;;;;;4993802;28;20196;-53
2023/04/25 08:55:21;;;;;;;0.63;0.30;;;10.00;99.90;;;;;;4992622;28;20040;-53
2023/04/25 08:57:51;;;;;;;1.97;0.60;;;9.80;99.90;;;;;;4993297;28;20056;-50
2023/04/25 09:00:18;;;;;;;2.10;0.30;;;9.80;99.90;;;;;;5010961;28;20034;-51
2023/04/25 09:02:47;;;;;;;0.35;0.35;;;9.70;99.90;;;;;;4993628;28;20030;-57
2023/04/25 09:05:13;;;;;;;1.07;0.50;;;9.80;99.90;;;;;;5011246;28;20452;-57
2023/04/25 09:07:40;;;;;;;2.63;0.97;;;9.50;99.90;;;;;;4993609;28;20451;-55
2023/04/25 09:10:06;;;;;;;0.40;0.20;;;9.60;99.90;;;;;;5025553;28;20494;-56
2023/04/25 09:12:35;;;;;;;;;;;9.90;99.90;;;;;;4994242;28;20445;-54
2023/04/25 09:15:10;;;;;;;0.97;0.40;;;10.40;99.90;;;;;;5026396;28;20243;-56
2023/04/25 09:18:05;;;;;;;0.30;0.30;;;10.80;99.90;;;;;;4988642;28;20038;-56
2023/04/25 09:20:43;;;;;;;1.02;0.30;;;10.90;99.90;;;;;;5026089;28;20045;-56
2023/04/25 09:23:09;;;;;;;1.23;0.47;;;11.10;99.90;;;;;;5010747;28;20054;-57
2023/04/25 09:25:38;;;;;;;2.45;1.08;;;11.30;99.90;;;;;;5024124;28;20041;-54
2023/04/25 09:28:06;;;;;;;4.40;0.47;;;11.30;99.90;;;;;;4993026;28;20042;-49
2023/04/25 09:30:36;;;;;;;0.90;0.47;;;11.50;99.90;;;;;;4992778;28;20030;-54
2023/04/25 09:33:28;;;;;;;1.25;0.40;;;11.70;99.90;;;;;;4992790;28;20025;-53
2023/04/25 09:36:00;;;;;;;1.05;0.40;;;11.70;99.90;;;;;;5011015;28;20036;-56
2023/04/25 09:38:43;;;;;;;2.33;0.40;;;11.60;99.90;;;;;;5024367;28;20632;-54
2023/04/25 09:41:25;;;;;;;1.70;0.70;;;11.70;99.50;;;;;;4993026;28;20034;-53
2023/04/25 09:43:57;;;;;;;0.60;0.60;;;11.70;98.80;;;;;;4992487;28;20444;-54
2023/04/25 09:46:32;;;;;;;2.08;0.73;;;11.70;99.40;;;;;;5025450;28;20050;-55
2023/04/25 09:48:58;;;;;;;2.58;0.43;;;11.50;99.50;;;;;;5010042;28;20112;-54
2023/04/25 09:51:31;;;;;;;1.70;0.35;;;11.50;99.60;;;;;;4992982;28;20029;-53
2023/04/25 09:53:59;;;;;;;1.08;0.17;;;11.40;97.60;;;;;;4991037;28;20049;-53
2023/04/25 09:56:37;;;;;;;1.42;0.40;;;11.40;99.00;;;;;;4992490;28;20030;-51
2023/04/25 09:59:06;;;;;;;0.25;0.22;;;11.20;98.10;;;;;;5024713;28;20026;-53
2023/04/25 10:01:35;;;;;;;1.13;0.30;;;11.00;99.10;;;;;;4992785;28;20026;-54
2023/04/25 10:04:11;;;;;;;0.45;0.35;;;11.00;99.40;;;;;;4992209;28;20398;-54
2023/04/25 10:07:00;;;;;;;0.70;0.30;;;11.10;99.80;;;;;;4992631;28;20162;-55
2023/04/25 10:09:27;;;;;;;1.60;0.85;;;11.40;98.20;;;;;;5008519;28;20442;-53
2023/04/25 10:11:56;;;;;;;0.45;0.25;;;11.60;97.20;;;;;;5010254;28;20033;-52
2023/04/25 10:14:23;;;;;;;1.15;0.77;;;11.70;98.50;;;;;;5009913;28;20164;-53
2023/04/25 10:16:53;;;;;;;0.55;0.30;;;11.80;97.00;;;;;;5010140;28;20042;-54
2023/04/25 10:19:20;;;;;;;0.98;0.50;;;11.70;98.20;;;;;;5009690;28;20114;-53
2023/04/25 10:21:51;;;;;;;0.40;0.38;;;11.40;97.40;;;;;;5010606;28;20068;-52
2023/04/25 10:24:19;;;;;;;0.45;0.30;;;11.40;99.30;;;;;;5008277;28;20471;-53
2023/04/25 10:26:45;;;;;;;0.30;0.20;;;11.80;98.10;;;;;;5009688;28;20041;-53
2023/04/25 10:29:11;;;;;;;0.95;0.47;;;12.30;96.60;;;;;;5009464;28;20030;-53
2023/04/25 10:31:45;;;;;;;0.47;0.22;;;12.80;95.70;;;;;;5010139;28;20038;-53
2023/04/25 10:34:11;;;;;;;0.63;0.32;;;13.20;95.90;;;;;;5009929;28;20033;-53
2023/04/25 10:36:37;;;;;;;1.17;0.43;;;13.30;96.10;;;;;;5008693;28;20340;-51
2023/04/25 10:39:08;;;;;;;0.93;0.40;;;13.30;95.60;;;;;;5008410;28;20500;-54
2023/04/25 10:41:53;;;;;;;1.02;0.57;;;13.30;95.40;;;;;;5010091;28;20177;-53
2023/04/25 10:44:19;;;;;;;0.35;0.25;;;14.40;94.20;;;;;;5009384;28;20038;-54
2023/04/25 10:46:48;;;;;;;1.15;0.43;;;15.70;91.60;;;;;;5009684;28;20042;-52
2023/04/25 10:49:36;;;;;;;0.50;0.40;;;15.70;90.30;;;;;;5009294;28;20029;-54
2023/04/25 10:52:14;;;;;;;2.17;0.57;;;14.50;89.60;;;;;;5010239;28;20048;-55
2023/04/25 10:55:01;;;;;;;0.30;0.30;;;13.90;92.30;;;;;;5008400;28;20062;-54
2023/04/25 10:57:35;;;;;;;0.85;0.40;;;13.30;91.10;;;;;;5008677;28;20053;-56
2023/04/25 11:00:05;;;;;;;0.93;0.30;;;12.50;95.00;;;;;;4989956;28;20602;-54
2023/04/25 11:02:31;;;;;;;2.17;0.20;;;12.40;96.70;;;;;;4990372;28;20462;-57
2023/04/25 11:04:57;;;;;;;1.15;0.45;;;12.00;97.60;;;;;;4989593;28;20125;-56
2023/04/25 11:07:34;;;;;;;0.20;0.20;;;11.60;98.40;;;;;;4989713;28;20162;-55
2023/04/25 11:10:03;;;;;;;1.17;0.32;;;11.20;99.90;;;;;;4987640;28;20026;-56
2023/04/25 11:12:30;;;;;;;0.55;0.20;;;11.00;99.90;;;;;;4989653;28;20026;-55
2023/04/25 11:15:04;;;;;;;1.85;0.50;;;11.00;99.90;;;;;;4989396;28;20140;-57
2023/04/25 11:17:30;;;;;;;1.75;0.20;;;10.80;99.90;;;;;;4989478;28;20049;-55
2023/04/25 11:19:57;;;;;;;1.20;0.30;;;10.60;99.90;;;;;;4971668;28;20553;-54
2023/04/25 11:22:23;;;;;;;0.80;0.70;;;10.70;99.90;;;;;;4989634;28;20503;-53
2023/04/25 11:24:49;;;;;;;0.67;0.60;;;10.60;99.90;;;;;;4988295;28;20049;-56
2023/04/25 11:27:14;;;;;;;0.80;0.30;;;10.40;99.90;;;;;;4989714;28;20018;-56
2023/04/25 11:29:41;;;;;;;1.30;0.40;;;10.30;99.90;;;;;;4989530;28;20069;-55
2023/04/25 11:32:07;;;;;;;2.10;0.33;;;10.10;99.90;;;;;;4989682;28;20414;-55
2023/04/25 11:34:34;;;;;;;1.00;0.40;;;10.30;99.90;;;;;;4989244;28;20038;-54
2023/04/25 11:37:01;;;;;;;1.23;0.47;;;10.30;99.90;;;;;;4989403;28;20035;-55
2023/04/25 11:39:28;;;;;;;3.50;0.60;;;10.30;99.90;;;;;;4988103;28;20049;-56
2023/04/25 11:41:55;;;;;;;2.73;0.30;;;10.40;99.90;;;;;;4989720;28;20030;-55
2023/04/25 11:44:22;;;;;;;1.03;0.47;;;10.40;99.90;;;;;;4989130;28;20031;-54
2023/04/25 11:46:48;;;;;;;0.27;0.17;;;10.30;99.90;;;;;;4989435;28;20125;-54
2023/04/25 11:49:15;;;;;;;2.07;0.77;;;10.20;99.90;;;;;;4990725;28;20054;-53
2023/04/25 11:51:41;;;;;;;0.30;0.30;;;10.30;99.90;;;;;;4993061;28;20097;-52
2023/04/25 11:54:07;;;;;;;1.23;0.50;;;10.20;99.90;;;;;;4991551;28;20034;-55
2023/04/25 11:56:33;;;;;;;2.27;0.50;;;9.90;99.90;;;;;;4992589;28;20034;-53
2023/04/25 11:59:04;;;;;;;3.47;0.67;;;9.80;99.90;;;;;;4992137;28;20038;-54
2023/04/25 12:01:32;;;;;;;0.97;0.73;;;9.50;99.90;;;;;;4992589;28;20023;-53
2023/04/25 12:03:58;;;;;;;0.40;0.27;;;9.40;99.90;;;;;;4992062;28;20027;-55
2023/04/25 12:06:28;;;;;;;2.53;0.57;;;9.20;99.90;;;;;;4992094;28;20026;-54
2023/04/25 12:09:04;;;;;;;1.13;0.33;;;9.10;99.90;;;;;;4991338;28;20112;-52
2023/04/25 12:11:34;;;;;;;0.40;0.30;;;9.20;99.90;;;;;;4992581;28;20402;-53
2023/04/25 12:14:04;;;;;;;1.47;0.50;;;9.10;99.90;;;;;;4991810;28;20391;-52
2023/04/25 12:16:43;;;;;;;1.83;0.70;;;9.00;99.90;;;;;;4991871;28;20034;-54
2023/04/25 12:19:09;;;;;;;0.65;0.50;;;9.00;99.90;;;;;;4991869;28;20125;-55
2023/04/25 12:21:36;;;;;;;1.37;0.60;;;9.10;99.90;;;;;;4992260;28;20022;-49
2023/04/25 12:24:22;;;;;;;2.50;0.50;;;9.30;99.90;;;;;;4991098;28;20041;-49
2023/04/25 12:26:59;;;;;;;0.93;0.60;;;9.50;99.90;;;;;;4992449;28;20034;-52
2023/04/25 12:29:27;;;;;;;1.00;0.33;;;9.60;99.90;;;;;;4991914;28;20307;-52
2023/04/25 12:31:54;;;;;;;0.50;0.40;;;9.90;99.90;;;;;;4992493;28;20456;-53
2023/04/25 12:34:21;;;;;;;0.30;0.17;;;10.10;99.90;;;;;;4991510;28;20077;-55
2023/04/25 12:36:47;;;;;;;0.70;0.33;;;10.50;99.90;;;;;;4991434;28;20045;-50
2023/04/25 12:39:24;;;;;;;2.37;0.77;;;10.70;99.90;;;;;;4990272;28;20437;-51
2023/04/25 12:41:53;;;;;;;0.77;0.60;;;10.90;99.90;;;;;;4992246;28;20436;-56
2023/04/25 12:44:20;;;;;;;1.70;0.40;;;11.20;99.90;;;;;;4991343;28;20375;-56
2023/04/25 12:46:47;;;;;;;3.13;1.47;;;11.60;99.90;;;;;;4991375;28;20031;-58
2023/04/25 12:49:13;;;;;;;1.13;0.43;;;11.90;99.90;;;;;;4991313;28;20053;-58
2023/04/25 12:51:39;;;;;;;3.63;0.60;;;12.20;98.80;;;;;;4991491;28;20479;-50
2023/04/25 12:54:06;;;;;;;0.70;0.35;;;12.30;97.20;;;;;;4989956;28;20143;-52
2023/04/25 12:56:33;;;;;;;3.08;0.80;;;12.30;98.50;;;;;;4991277;28;20443;-49
2023/04/25 12:58:58;;;;;;;1.75;0.65;;;12.20;97.00;;;;;;4990845;28;20083;-47
2023/04/25 13:01:26;;;;;;;0.95;0.63;;;11.80;98.80;;;;;;4992006;28;20554;-49
2023/04/25 13:03:52;;;;;;;0.50;0.40;;;11.60;98.50;;;;;;5010592;28;20034;-48
2023/04/25 13:06:19;;;;;;;1.30;0.60;;;11.40;98.90;;;;;;5005028;28;20034;-52
2023/04/25 13:08:45;;;;;;;2.30;0.50;;;11.20;99.70;;;;;;4989641;28;20487;-63
2023/04/25 13:11:11;;;;;;;0.17;0.17;;;11.00;99.90;;;;;;4991224;28;20027;-49